Time;durP1;ratioP1;P1;durP2;ratioP2;P2;SDS_P1;SDS_P2;PMS_P1;PMS_P2;Temp;Humidity;BMP_temperature;BMP_pressure;BME280_temperature;BME280_humidity;BME280_pressure;Samples;Min_cycle;Max_cycle;Signal;HPM_P1;HPM_P2
2023/03/17 00:01:54;;;;;;;13.85;8.23;;;29.20;99.90;;;;;;5049546;28;20553;-75
2023/03/17 00:04:29;;;;;;;13.32;7.70;;;29.30;99.90;;;;;;5055646;28;20190;-75
2023/03/17 00:07:00;;;;;;;12.73;7.00;;;29.40;99.90;;;;;;5055423;28;20193;-75
2023/03/17 00:09:31;;;;;;;12.93;6.93;;;29.50;99.90;;;;;;5055432;28;20217;-75
2023/03/17 00:12:02;;;;;;;15.05;7.03;;;29.60;99.90;;;;;;5055204;28;20193;-75
2023/03/17 00:14:33;;;;;;;9.45;6.82;;;29.70;99.90;;;;;;5055399;28;20186;-75
2023/03/17 00:17:04;;;;;;;14.68;7.25;;;29.80;99.90;;;;;;5055262;28;20201;-75
2023/03/17 00:19:38;;;;;;;10.98;7.43;;;29.90;99.90;;;;;;5053320;28;20208;-75
2023/03/17 00:22:21;;;;;;;10.73;6.90;;;30.00;99.90;;;;;;5065233;28;20189;-77
2023/03/17 00:24:52;;;;;;;9.55;6.45;;;30.10;99.90;;;;;;5072818;28;20602;-74
2023/03/17 00:27:23;;;;;;;9.55;6.05;;;30.10;99.90;;;;;;5069433;28;20197;-76
2023/03/17 00:29:54;;;;;;;9.05;6.05;;;30.10;99.90;;;;;;5060075;28;20205;-75
2023/03/17 00:32:25;;;;;;;10.50;6.15;;;30.10;99.90;;;;;;5058024;28;20553;-75
2023/03/17 00:34:58;;;;;;;10.35;6.50;;;30.00;99.90;;;;;;5054850;28;20245;-75
2023/03/17 00:37:29;;;;;;;12.65;7.20;;;30.10;99.90;;;;;;5058628;28;20189;-75
2023/03/17 00:40:00;;;;;;;12.30;8.07;;;30.10;99.90;;;;;;5071106;28;20235;-76
2023/03/17 00:42:31;;;;;;;9.75;6.90;;;30.20;99.90;;;;;;5073426;28;20193;-75
2023/03/17 00:45:02;;;;;;;12.32;7.40;;;30.20;99.90;;;;;;5061094;28;20202;-76
2023/03/17 00:47:33;;;;;;;11.80;7.10;;;30.30;99.90;;;;;;5067227;28;20212;-75
2023/03/17 00:50:07;;;;;;;11.93;7.88;;;30.40;99.90;;;;;;5074684;28;20217;-76
2023/03/17 00:52:41;;;;;;;12.10;7.75;;;30.50;99.90;;;;;;5075070;28;20199;-76
2023/03/17 00:55:13;;;;;;;12.45;7.63;;;30.50;99.90;;;;;;5053757;28;20228;-76
2023/03/17 00:57:46;;;;;;;12.48;7.93;;;30.50;99.90;;;;;;5054730;28;20186;-78
2023/03/17 01:00:26;;;;;;;10.57;6.97;;;30.60;99.90;;;;;;5053707;28;20186;-76
2023/03/17 01:02:59;;;;;;;10.77;7.47;;;30.70;99.90;;;;;;5054424;28;20193;-76
2023/03/17 01:05:32;;;;;;;11.80;7.60;;;30.80;99.90;;;;;;5073221;28;20645;-77
2023/03/17 01:08:03;;;;;;;12.25;7.72;;;30.90;99.90;;;;;;5064188;28;20200;-76
2023/03/17 01:10:34;;;;;;;13.23;7.70;;;31.10;99.90;;;;;;5053236;28;20237;-79
2023/03/17 01:13:06;;;;;;;12.00;7.75;;;31.20;99.90;;;;;;5046305;28;20198;-76
2023/03/17 01:15:38;;;;;;;15.93;7.80;;;31.30;99.90;;;;;;5055303;28;20198;-79
2023/03/17 01:18:11;;;;;;;12.27;7.65;;;31.40;99.90;;;;;;5053360;28;20657;-78
2023/03/17 01:20:44;;;;;;;10.55;7.35;;;31.40;99.90;;;;;;5057475;28;20280;-78
2023/03/17 01:23:16;;;;;;;12.52;6.70;;;31.50;99.90;;;;;;5052008;28;20569;-82
2023/03/17 01:25:47;;;;;;;6.05;3.80;;;31.60;99.90;;;;;;5054380;28;20197;-77
2023/03/17 01:28:19;;;;;;;9.30;3.67;;;31.70;99.90;;;;;;5050376;28;20189;-76
2023/03/17 01:30:51;;;;;;;6.72;3.20;;;31.80;99.90;;;;;;5054345;28;20216;-76
2023/03/17 01:33:22;;;;;;;5.65;2.90;;;31.80;99.90;;;;;;5052956;28;20229;-77
2023/03/17 01:35:55;;;;;;;6.13;2.38;;;31.80;99.90;;;;;;5052677;28;20190;-77
2023/03/17 01:38:26;;;;;;;4.15;1.95;;;31.80;99.90;;;;;;5052421;28;20229;-75
2023/03/17 01:40:57;;;;;;;2.72;1.48;;;31.70;99.90;;;;;;5055406;28;20201;-78
2023/03/17 01:43:30;;;;;;;4.47;1.40;;;31.70;99.90;;;;;;5054895;28;20193;-77
2023/03/17 01:46:30;;;;;;;3.60;0.95;;;31.60;99.90;;;;;;5052776;28;20706;-77
2023/03/17 01:49:20;;;;;;;2.40;0.80;;;31.60;99.90;;;;;;5053449;28;20251;-78
2023/03/17 01:52:05;;;;;;;2.33;1.00;;;31.60;99.90;;;;;;5051370;28;20260;-78
2023/03/17 01:54:45;;;;;;;3.28;1.00;;;31.50;99.90;;;;;;5053574;28;20374;-80
2023/03/17 01:57:22;;;;;;;7.35;1.27;;;31.50;99.90;;;;;;5051681;28;20201;-79
2023/03/17 01:59:56;;;;;;;6.55;1.10;;;31.40;99.90;;;;;;5052764;28;20649;-74
2023/03/17 02:02:42;;;;;;;3.83;0.88;;;31.00;99.90;;;;;;5045938;28;20197;-80
2023/03/17 02:05:15;;;;;;;3.85;1.15;;;30.60;99.90;;;;;;5048572;28;20229;-78
2023/03/17 02:07:49;;;;;;;4.05;1.30;;;30.30;99.90;;;;;;5049584;28;20642;-79
2023/03/17 02:10:20;;;;;;;4.68;1.20;;;30.10;99.90;;;;;;5055150;28;20217;-76
2023/03/17 02:12:54;;;;;;;3.97;1.50;;;29.80;99.90;;;;;;5053136;28;20186;-77
2023/03/17 02:15:26;;;;;;;6.70;1.33;;;29.60;99.90;;;;;;5054658;28;20205;-76
2023/03/17 02:17:57;;;;;;;2.70;1.30;;;29.40;99.90;;;;;;5053620;28;20284;-76
2023/03/17 02:21:15;;;;;;;6.35;1.73;;;29.30;99.90;;;;;;5052954;28;20194;-77
2023/03/17 02:23:48;;;;;;;9.25;1.73;;;29.40;99.90;;;;;;5051431;28;20197;-77
2023/03/17 02:26:21;;;;;;;5.95;1.17;;;29.40;99.90;;;;;;5051980;28;20197;-78
2023/03/17 02:28:52;;;;;;;4.65;1.30;;;29.40;99.90;;;;;;5055619;28;20198;-78
2023/03/17 02:31:25;;;;;;;4.35;1.27;;;29.30;99.90;;;;;;5051488;28;20247;-77
2023/03/17 02:33:57;;;;;;;4.43;1.40;;;29.30;99.90;;;;;;5053344;28;20240;-78
2023/03/17 02:36:28;;;;;;;4.63;1.23;;;29.20;99.90;;;;;;5052072;28;20604;-76
2023/03/17 02:39:01;;;;;;;6.85;1.25;;;29.20;99.90;;;;;;5051388;28;20693;-77
2023/03/17 02:41:33;;;;;;;4.85;1.10;;;29.10;99.90;;;;;;5053233;28;20203;-78
2023/03/17 02:44:04;;;;;;;5.40;1.40;;;29.00;99.90;;;;;;5045446;28;20630;-79
2023/03/17 02:46:35;;;;;;;8.80;1.60;;;28.90;99.90;;;;;;5053374;28;20189;-79
2023/03/17 02:49:07;;;;;;;4.32;1.45;;;28.90;99.90;;;;;;5051856;28;20197;-79
2023/03/17 02:51:38;;;;;;;7.47;2.00;;;28.90;99.90;;;;;;5056270;28;20192;-80
2023/03/17 02:54:12;;;;;;;4.82;1.50;;;28.90;99.90;;;;;;5055710;28;20201;-78
2023/03/17 02:56:44;;;;;;;6.47;1.90;;;28.90;99.90;;;;;;5051908;28;20557;-78
2023/03/17 02:59:15;;;;;;;4.40;1.52;;;29.00;99.90;;;;;;5052855;28;20198;-78
2023/03/17 03:01:47;;;;;;;7.47;1.70;;;28.80;99.90;;;;;;5052903;28;20193;-78
2023/03/17 03:04:18;;;;;;;7.18;1.60;;;28.80;99.90;;;;;;5055694;28;20204;-79
2023/03/17 03:06:50;;;;;;;8.85;1.77;;;28.80;99.90;;;;;;5050541;28;20284;-77
2023/03/17 03:09:23;;;;;;;7.78;1.70;;;28.80;99.90;;;;;;5051369;28;20201;-80
2023/03/17 03:11:55;;;;;;;6.13;2.10;;;28.80;99.90;;;;;;5046186;28;20305;-79
2023/03/17 03:14:28;;;;;;;9.02;2.30;;;28.80;99.90;;;;;;5032700;28;20205;-81
2023/03/17 03:16:59;;;;;;;7.68;1.70;;;28.80;99.90;;;;;;5050044;28;20659;-78
2023/03/17 03:19:30;;;;;;;7.53;2.10;;;28.70;99.90;;;;;;5051090;28;20648;-79
2023/03/17 03:22:01;;;;;;;8.25;1.98;;;28.70;99.90;;;;;;5052020;28;20634;-80
2023/03/17 03:24:34;;;;;;;7.93;1.95;;;28.70;99.90;;;;;;5055586;28;20182;-80
2023/03/17 03:27:06;;;;;;;9.15;1.92;;;28.80;99.90;;;;;;5055956;28;21515;-78
2023/03/17 03:29:37;;;;;;;5.63;1.67;;;28.80;99.90;;;;;;5056364;28;20705;-79
2023/03/17 03:32:09;;;;;;;7.53;2.00;;;28.80;99.90;;;;;;5056596;28;20186;-79
2023/03/17 03:34:40;;;;;;;10.95;2.00;;;28.80;99.90;;;;;;5056248;28;20233;-81
2023/03/17 03:37:12;;;;;;;7.70;2.33;;;28.70;99.90;;;;;;5054838;28;20208;-81
2023/03/17 03:39:45;;;;;;;6.88;2.00;;;28.70;99.90;;;;;;5043712;28;20190;-80
2023/03/17 03:42:19;;;;;;;8.55;2.40;;;28.60;99.90;;;;;;5057458;28;20698;-81
2023/03/17 03:44:51;;;;;;;6.15;2.22;;;28.50;99.90;;;;;;5044441;28;20205;-81
2023/03/17 03:47:22;;;;;;;8.15;2.10;;;28.60;99.90;;;;;;5059786;28;20206;-77
2023/03/17 03:49:54;;;;;;;6.35;1.85;;;28.60;99.90;;;;;;5065341;28;20209;-79
2023/03/17 03:52:25;;;;;;;7.18;2.20;;;28.60;99.90;;;;;;5054620;28;20209;-78
2023/03/17 03:54:58;;;;;;;9.77;2.00;;;28.40;99.90;;;;;;5053262;28;20213;-79
2023/03/17 03:57:29;;;;;;;5.20;1.90;;;28.30;99.90;;;;;;5053260;28;20652;-78
2023/03/17 04:00:00;;;;;;;4.72;1.77;;;28.30;99.90;;;;;;5053566;28;20198;-81
2023/03/17 04:02:31;;;;;;;5.70;1.70;;;28.20;99.90;;;;;;5058710;28;20652;-79
2023/03/17 04:05:02;;;;;;;8.48;1.77;;;28.10;99.90;;;;;;5055290;28;20649;-80
2023/03/17 04:07:33;;;;;;;7.15;1.60;;;28.00;99.90;;;;;;5058113;28;20185;-78
2023/03/17 04:10:07;;;;;;;5.88;1.55;;;28.00;99.90;;;;;;5065224;28;20702;-78
2023/03/17 04:12:38;;;;;;;5.53;1.77;;;27.80;99.90;;;;;;5053359;28;20213;-80
2023/03/17 04:15:10;;;;;;;5.57;1.77;;;27.80;99.90;;;;;;5057500;28;20675;-77
2023/03/17 04:17:44;;;;;;;8.57;1.65;;;27.90;99.90;;;;;;5066971;28;20194;-80
2023/03/17 04:20:16;;;;;;;7.00;1.60;;;27.90;99.90;;;;;;5056503;28;20660;-75
2023/03/17 04:22:48;;;;;;;7.18;1.42;;;27.90;99.90;;;;;;5058463;28;20192;-78
2023/03/17 04:25:21;;;;;;;8.18;1.80;;;27.70;99.90;;;;;;5055027;28;20202;-80
2023/03/17 04:27:53;;;;;;;6.97;1.70;;;27.70;99.90;;;;;;5055417;28;20200;-76
2023/03/17 04:30:25;;;;;;;4.75;1.30;;;27.70;99.90;;;;;;5055625;28;20223;-77
2023/03/17 04:32:56;;;;;;;6.63;1.55;;;27.70;99.90;;;;;;5055373;28;20679;-81
2023/03/17 04:35:27;;;;;;;9.98;1.70;;;27.80;99.90;;;;;;5050329;28;20568;-76
2023/03/17 04:37:58;;;;;;;6.88;1.60;;;27.90;99.90;;;;;;5056496;28;20275;-80
2023/03/17 04:40:31;;;;;;;8.32;1.70;;;27.80;99.90;;;;;;5054412;28;20193;-78
2023/03/17 04:43:02;;;;;;;4.60;1.25;;;27.50;99.90;;;;;;5058639;28;20208;-79
2023/03/17 04:45:33;;;;;;;9.25;1.77;;;27.30;99.90;;;;;;5053447;28;20204;-78
2023/03/17 04:48:04;;;;;;;8.70;1.70;;;27.30;99.90;;;;;;5054484;28;20189;-79
2023/03/17 04:50:36;;;;;;;7.72;1.60;;;27.30;99.90;;;;;;5054577;28;20705;-80
2023/03/17 04:53:07;;;;;;;5.28;1.65;;;27.40;99.90;;;;;;5054894;28;20552;-77
2023/03/17 04:55:40;;;;;;;6.13;1.52;;;27.10;99.90;;;;;;5054671;28;20208;-79
2023/03/17 04:58:11;;;;;;;8.00;1.65;;;26.90;99.90;;;;;;5054509;28;20244;-80
2023/03/17 05:00:43;;;;;;;7.95;1.55;;;26.70;99.90;;;;;;5054757;28;20185;-79
2023/03/17 05:03:14;;;;;;;11.65;1.50;;;26.60;99.90;;;;;;5054192;28;20204;-78
2023/03/17 05:05:45;;;;;;;5.05;1.70;;;26.70;99.90;;;;;;5054466;28;20187;-78
2023/03/17 05:08:18;;;;;;;5.20;1.30;;;26.80;99.90;;;;;;5054744;28;20196;-80
2023/03/17 05:10:52;;;;;;;6.75;1.70;;;26.80;99.90;;;;;;5054302;28;20221;-80
2023/03/17 05:13:23;;;;;;;9.15;1.52;;;26.60;99.90;;;;;;5042156;28;20660;-80
2023/03/17 05:15:56;;;;;;;7.93;1.50;;;26.50;99.90;;;;;;5051483;28;20200;-81
2023/03/17 05:18:28;;;;;;;10.82;1.80;;;26.40;99.90;;;;;;5054381;28;20205;-81
2023/03/17 05:20:59;;;;;;;6.93;1.77;;;26.40;99.90;;;;;;5053888;28;20201;-80
2023/03/17 05:23:30;;;;;;;9.60;1.50;;;26.50;99.90;;;;;;5053647;28;20220;-79
2023/03/17 05:26:03;;;;;;;8.48;1.60;;;26.50;99.90;;;;;;5054236;28;20259;-80
2023/03/17 05:28:34;;;;;;;6.22;1.55;;;26.50;99.90;;;;;;5053742;28;20193;-79
2023/03/17 05:31:05;;;;;;;7.40;1.70;;;26.40;99.90;;;;;;5053892;28;20221;-81
2023/03/17 05:33:37;;;;;;;5.38;1.70;;;26.30;99.90;;;;;;5053490;28;20684;-79
2023/03/17 05:36:09;;;;;;;4.80;1.58;;;26.20;99.90;;;;;;5053637;28;20717;-78
2023/03/17 05:38:40;;;;;;;7.00;1.85;;;26.20;99.90;;;;;;5053452;28;20229;-76
2023/03/17 05:41:15;;;;;;;5.13;1.45;;;26.20;99.90;;;;;;5053523;28;20240;-78
2023/03/17 05:43:46;;;;;;;5.07;1.70;;;26.10;99.90;;;;;;5053384;28;20193;-82
2023/03/17 05:46:17;;;;;;;5.22;1.90;;;26.00;99.90;;;;;;5052926;28;20198;-78
2023/03/17 05:48:48;;;;;;;6.18;1.60;;;25.90;99.90;;;;;;5053583;28;20201;-75
2023/03/17 05:51:19;;;;;;;12.43;2.05;;;25.90;99.90;;;;;;5053697;28;20220;-79
2023/03/17 05:53:50;;;;;;;3.78;1.52;;;25.70;99.90;;;;;;5053337;28;20224;-79
2023/03/17 05:56:25;;;;;;;4.82;1.60;;;25.60;99.90;;;;;;5053569;28;20213;-78
2023/03/17 05:58:56;;;;;;;4.03;1.50;;;25.60;99.90;;;;;;5053363;28;20627;-78
2023/03/17 06:01:27;;;;;;;7.18;1.80;;;25.70;99.90;;;;;;5053049;28;20197;-79
2023/03/17 06:03:59;;;;;;;7.18;1.90;;;25.80;99.90;;;;;;5053556;28;20256;-78
2023/03/17 06:06:31;;;;;;;6.55;1.70;;;26.00;99.90;;;;;;5053349;28;20201;-80
2023/03/17 06:09:02;;;;;;;9.38;1.98;;;25.90;99.90;;;;;;5053516;28;20293;-79
2023/03/17 06:11:35;;;;;;;5.00;1.65;;;25.80;99.90;;;;;;5052916;28;20221;-78
2023/03/17 06:14:07;;;;;;;7.55;1.98;;;25.80;99.90;;;;;;5053099;28;20198;-81
2023/03/17 06:16:38;;;;;;;6.90;1.60;;;25.90;99.90;;;;;;5053256;28;20227;-79
2023/03/17 06:19:09;;;;;;;8.25;1.77;;;25.90;99.90;;;;;;5053172;28;20202;-78
2023/03/17 06:21:41;;;;;;;6.72;1.80;;;25.90;99.90;;;;;;5052977;28;20193;-77
2023/03/17 06:24:14;;;;;;;7.07;2.00;;;25.90;99.90;;;;;;5052967;28;20197;-77
2023/03/17 06:26:48;;;;;;;8.05;2.42;;;25.90;99.90;;;;;;5052786;28;20219;-81
2023/03/17 06:29:19;;;;;;;9.05;2.05;;;25.90;99.90;;;;;;5052792;28;20263;-78
2023/03/17 06:31:51;;;;;;;7.38;2.17;;;25.90;99.90;;;;;;5040142;28;20217;-80
2023/03/17 06:34:23;;;;;;;8.27;2.05;;;25.90;99.90;;;;;;5052622;28;20236;-80
2023/03/17 06:36:54;;;;;;;7.95;1.90;;;25.90;99.90;;;;;;5052901;28;20673;-79
2023/03/17 06:39:25;;;;;;;5.30;2.00;;;25.70;99.90;;;;;;5052680;28;20604;-79
2023/03/17 06:41:59;;;;;;;4.68;1.77;;;25.70;99.90;;;;;;5052962;28;20247;-79
2023/03/17 06:44:30;;;;;;;7.80;2.00;;;25.60;99.90;;;;;;5052495;28;20200;-78
2023/03/17 06:47:01;;;;;;;7.13;2.00;;;25.50;99.90;;;;;;5052805;28;20319;-80
2023/03/17 06:49:32;;;;;;;7.40;2.25;;;25.50;99.90;;;;;;5052685;28;20699;-82
2023/03/17 06:52:04;;;;;;;5.30;1.83;;;25.40;99.90;;;;;;5052596;28;20217;-80
2023/03/17 06:54:35;;;;;;;6.15;1.92;;;25.30;99.90;;;;;;5052844;28;20193;-79
2023/03/17 06:57:08;;;;;;;6.60;2.00;;;25.30;99.90;;;;;;5052621;28;20204;-78
2023/03/17 06:59:39;;;;;;;7.55;1.90;;;25.40;99.90;;;;;;5056072;28;20205;-82
2023/03/17 07:02:12;;;;;;;9.15;2.13;;;25.50;99.90;;;;;;5056756;28;20197;-78
2023/03/17 07:04:43;;;;;;;6.43;2.00;;;25.40;99.90;;;;;;5056685;28;20657;-78
2023/03/17 07:07:15;;;;;;;13.48;2.20;;;25.40;99.90;;;;;;5056673;28;20634;-82
2023/03/17 07:09:46;;;;;;;5.40;1.95;;;25.40;99.90;;;;;;5056508;28;20197;-78
2023/03/17 07:12:21;;;;;;;9.35;2.20;;;25.30;99.90;;;;;;5055893;28;20228;-80
2023/03/17 07:14:55;;;;;;;7.80;1.83;;;25.30;99.90;;;;;;5052252;28;20197;-81
2023/03/17 07:17:26;;;;;;;6.05;1.75;;;25.30;99.90;;;;;;5040866;28;20684;-80
2023/03/17 07:19:57;;;;;;;6.82;2.08;;;25.20;99.90;;;;;;5052646;28;20229;-80
2023/03/17 07:22:29;;;;;;;6.80;2.03;;;25.10;99.90;;;;;;5056077;28;20197;-79
2023/03/17 07:25:00;;;;;;;5.53;2.00;;;25.10;99.90;;;;;;5056139;28;20617;-80
2023/03/17 07:27:33;;;;;;;4.88;1.90;;;25.00;99.90;;;;;;5056281;28;20208;-79
2023/03/17 07:30:04;;;;;;;6.20;2.35;;;25.00;99.90;;;;;;5043037;28;20197;-80
2023/03/17 07:32:35;;;;;;;8.02;2.40;;;25.00;99.90;;;;;;5056029;28;20228;-79
2023/03/17 07:35:08;;;;;;;5.35;2.10;;;25.00;99.90;;;;;;5055796;28;20229;-78
2023/03/17 07:37:39;;;;;;;8.73;2.55;;;25.00;99.90;;;;;;5056273;28;20700;-80
2023/03/17 07:40:13;;;;;;;7.22;2.28;;;24.90;99.90;;;;;;5055948;28;20201;-81
2023/03/17 07:42:46;;;;;;;7.38;2.22;;;24.90;99.90;;;;;;5055617;28;20208;-79
2023/03/17 07:45:17;;;;;;;5.63;2.08;;;24.90;99.90;;;;;;5056145;28;20212;-79
2023/03/17 07:47:48;;;;;;;5.35;1.83;;;24.90;99.90;;;;;;5055598;28;20197;-79
2023/03/17 07:50:19;;;;;;;6.55;1.92;;;24.90;99.90;;;;;;5055654;28;20209;-78
2023/03/17 07:52:50;;;;;;;8.10;2.28;;;24.90;99.90;;;;;;5055574;28;20218;-76
2023/03/17 07:55:22;;;;;;;5.40;2.35;;;24.80;99.90;;;;;;5055381;28;20205;-78
2023/03/17 07:57:55;;;;;;;7.25;1.92;;;24.80;99.90;;;;;;5055376;28;20197;-77
2023/03/17 08:00:26;;;;;;;7.65;2.20;;;24.70;99.90;;;;;;5055510;28;20202;-77
2023/03/17 08:02:57;;;;;;;8.15;2.20;;;24.70;99.90;;;;;;5042287;28;20193;-77
2023/03/17 08:05:28;;;;;;;10.02;2.13;;;24.60;99.90;;;;;;5055584;28;20208;-77
2023/03/17 08:08:00;;;;;;;6.53;2.00;;;24.70;99.90;;;;;;5055375;28;20676;-79
2023/03/17 08:10:31;;;;;;;8.65;2.55;;;24.70;99.90;;;;;;5054863;28;20208;-76
2023/03/17 08:13:04;;;;;;;6.63;1.98;;;24.70;99.90;;;;;;5055099;28;20217;-77
2023/03/17 08:15:36;;;;;;;5.78;1.90;;;24.70;99.90;;;;;;5055146;28;20599;-77
2023/03/17 08:18:07;;;;;;;6.50;2.00;;;24.70;99.90;;;;;;5055377;28;20201;-78
2023/03/17 08:20:38;;;;;;;6.40;1.65;;;24.60;99.90;;;;;;5055170;28;20233;-79
2023/03/17 08:23:10;;;;;;;6.22;1.90;;;24.60;99.90;;;;;;5055176;28;20205;-77
2023/03/17 08:25:41;;;;;;;7.85;2.45;;;24.60;99.90;;;;;;5054905;28;20208;-76
2023/03/17 08:28:15;;;;;;;9.02;2.22;;;24.50;99.90;;;;;;5055099;28;20319;-76
2023/03/17 08:30:47;;;;;;;8.18;2.28;;;24.50;99.90;;;;;;5055182;28;20198;-76
2023/03/17 08:33:20;;;;;;;11.25;2.50;;;24.50;99.90;;;;;;5054807;28;20253;-80
2023/03/17 08:35:51;;;;;;;9.52;2.22;;;24.50;99.90;;;;;;5054724;28;20202;-77
2023/03/17 08:38:22;;;;;;;6.75;1.95;;;24.40;99.90;;;;;;5054752;28;20225;-76
2023/03/17 08:40:53;;;;;;;6.72;1.80;;;24.40;99.90;;;;;;5054842;28;20198;-76
2023/03/17 08:43:26;;;;;;;5.47;2.00;;;24.40;99.90;;;;;;5055212;28;20212;-76
2023/03/17 08:46:05;;;;;;;10.63;2.00;;;24.40;99.90;;;;;;5042081;28;20276;-77
2023/03/17 08:48:38;;;;;;;6.85;1.90;;;24.40;99.90;;;;;;5054505;28;20219;-79
2023/03/17 08:51:10;;;;;;;9.43;1.98;;;24.40;99.90;;;;;;5054493;28;20680;-77
2023/03/17 08:53:41;;;;;;;8.70;2.20;;;24.30;99.90;;;;;;5054196;28;20201;-77
2023/03/17 08:56:12;;;;;;;9.43;1.88;;;24.30;99.90;;;;;;5054424;28;20197;-76
2023/03/17 08:58:46;;;;;;;9.35;1.70;;;24.30;99.90;;;;;;5054313;28;20756;-77
2023/03/17 09:01:18;;;;;;;8.73;2.20;;;24.20;99.90;;;;;;5054190;28;20197;-76
2023/03/17 09:03:49;;;;;;;5.30;1.73;;;24.20;99.90;;;;;;5054294;28;20204;-76
2023/03/17 09:06:20;;;;;;;7.57;2.10;;;24.20;99.90;;;;;;5054095;28;20197;-77
2023/03/17 09:08:54;;;;;;;6.13;2.08;;;24.20;99.90;;;;;;5054062;28;20201;-76
2023/03/17 09:11:26;;;;;;;9.65;2.15;;;24.20;99.90;;;;;;5054046;28;20193;-77
2023/03/17 09:14:00;;;;;;;10.63;2.00;;;24.10;99.90;;;;;;5054148;28;20243;-77
2023/03/17 09:16:32;;;;;;;5.57;1.85;;;24.20;99.90;;;;;;5054018;28;20644;-76
2023/03/17 09:19:12;;;;;;;5.05;1.60;;;24.10;99.90;;;;;;5054053;28;20296;-76
2023/03/17 09:21:43;;;;;;;7.65;1.98;;;24.10;99.90;;;;;;5052213;28;20201;-76
2023/03/17 09:24:14;;;;;;;7.50;2.30;;;24.10;99.90;;;;;;5053361;28;20524;-75
2023/03/17 09:26:46;;;;;;;6.38;2.20;;;24.10;99.90;;;;;;5052560;28;20213;-75
2023/03/17 09:29:19;;;;;;;6.82;2.10;;;24.10;99.90;;;;;;5053897;28;20235;-76
2023/03/17 09:31:50;;;;;;;7.30;1.80;;;24.00;99.90;;;;;;5053925;28;20209;-76
2023/03/17 09:34:21;;;;;;;8.38;2.22;;;24.00;99.90;;;;;;5053880;28;20445;-76
2023/03/17 09:36:52;;;;;;;6.07;1.90;;;24.00;99.90;;;;;;5052711;28;20221;-75
2023/03/17 09:39:23;;;;;;;6.03;2.08;;;24.00;99.90;;;;;;5053879;28;20217;-75
2023/03/17 09:42:03;;;;;;;7.55;1.75;;;24.00;99.90;;;;;;5054047;28;20208;-75
2023/03/17 09:44:49;;;;;;;6.95;2.13;;;24.00;99.90;;;;;;5053735;28;20185;-75
2023/03/17 09:47:39;;;;;;;5.88;2.15;;;24.00;99.90;;;;;;5053769;28;20204;-75
2023/03/17 09:50:17;;;;;;;7.57;2.17;;;24.00;99.90;;;;;;5053689;28;20265;-75
2023/03/17 09:52:48;;;;;;;7.45;1.95;;;24.00;99.90;;;;;;5053310;28;20221;-75
2023/03/17 09:55:28;;;;;;;5.95;1.92;;;24.00;99.90;;;;;;5053577;28;20201;-75
2023/03/17 09:58:02;;;;;;;7.50;1.88;;;24.00;99.90;;;;;;5053593;28;20186;-76
2023/03/17 10:00:38;;;;;;;7.00;2.13;;;24.00;99.90;;;;;;5053529;28;20190;-75
2023/03/17 10:03:16;;;;;;;6.75;2.03;;;24.00;99.90;;;;;;5053536;28;20280;-75
2023/03/17 10:05:47;;;;;;;6.07;1.77;;;23.90;99.90;;;;;;5053273;28;20232;-75
2023/03/17 10:08:23;;;;;;;11.13;2.08;;;23.90;99.90;;;;;;5053457;28;20193;-75
2023/03/17 10:10:59;;;;;;;4.85;1.90;;;23.90;99.90;;;;;;5053301;28;20193;-75
2023/03/17 10:13:43;;;;;;;7.30;1.90;;;23.90;99.90;;;;;;5053147;28;20314;-75
2023/03/17 10:16:25;;;;;;;7.25;2.08;;;23.90;99.90;;;;;;5053254;28;20201;-75
2023/03/17 10:18:58;;;;;;;8.02;2.00;;;23.90;99.90;;;;;;5053330;28;20193;-76
2023/03/17 10:21:33;;;;;;;6.25;1.85;;;23.90;99.90;;;;;;5053023;28;20193;-75
2023/03/17 10:24:07;;;;;;;6.97;2.22;;;23.80;99.90;;;;;;5053525;28;20636;-75
2023/03/17 10:26:43;;;;;;;6.65;1.90;;;23.90;99.90;;;;;;5053204;28;20574;-75
2023/03/17 10:29:20;;;;;;;6.18;1.73;;;23.90;99.90;;;;;;5053198;28;20189;-76
2023/03/17 10:31:54;;;;;;;7.30;2.00;;;23.80;99.90;;;;;;5053491;28;20243;-78
2023/03/17 10:34:28;;;;;;;8.20;2.58;;;23.90;99.90;;;;;;5057187;28;20245;-76
2023/03/17 10:37:05;;;;;;;8.30;2.33;;;23.90;99.90;;;;;;5057024;28;20232;-76
2023/03/17 10:39:48;;;;;;;7.38;2.15;;;23.90;99.90;;;;;;5057505;28;20200;-76
2023/03/17 10:42:25;;;;;;;6.18;2.10;;;23.80;99.90;;;;;;5057073;28;20240;-76
2023/03/17 10:44:59;;;;;;;7.25;2.10;;;23.80;99.90;;;;;;5057039;28;20653;-77
2023/03/17 10:47:36;;;;;;;4.00;1.70;;;23.80;99.90;;;;;;5057143;28;20732;-77
2023/03/17 10:50:24;;;;;;;4.90;2.08;;;23.90;99.90;;;;;;5057174;28;20280;-76
2023/03/17 10:52:59;;;;;;;8.57;2.17;;;23.90;99.90;;;;;;5056872;28;20213;-75
2023/03/17 10:55:35;;;;;;;7.70;2.10;;;23.80;99.90;;;;;;5057002;28;20229;-76
2023/03/17 10:58:08;;;;;;;8.45;2.15;;;23.80;99.90;;;;;;5056872;28;20196;-76
2023/03/17 11:00:40;;;;;;;4.60;1.88;;;23.80;99.90;;;;;;5056874;28;20655;-76
2023/03/17 11:03:21;;;;;;;6.30;2.00;;;23.80;99.90;;;;;;5056887;28;20208;-76
2023/03/17 11:05:59;;;;;;;6.47;2.08;;;23.80;99.90;;;;;;5056760;28;20235;-77
2023/03/17 11:08:34;;;;;;;6.70;2.03;;;23.80;99.90;;;;;;5056697;28;20200;-79
2023/03/17 11:11:09;;;;;;;6.78;1.98;;;23.80;99.90;;;;;;5056678;28;20640;-80
2023/03/17 11:13:40;;;;;;;6.45;2.08;;;23.80;99.90;;;;;;5056610;28;20227;-77
2023/03/17 11:16:23;;;;;;;6.53;1.90;;;23.80;99.90;;;;;;5056889;28;20189;-78
2023/03/17 11:18:59;;;;;;;5.30;1.80;;;23.70;99.90;;;;;;5056390;28;20186;-77
2023/03/17 11:21:33;;;;;;;8.00;2.17;;;23.70;99.90;;;;;;5056606;28;20193;-76
2023/03/17 11:24:09;;;;;;;8.35;2.10;;;23.70;99.90;;;;;;5056422;28;20201;-75
2023/03/17 11:26:52;;;;;;;7.55;2.30;;;23.70;99.90;;;;;;5056903;28;20209;-78
2023/03/17 11:29:32;;;;;;;10.23;2.00;;;23.70;99.90;;;;;;5056259;28;20193;-76
2023/03/17 11:32:22;;;;;;;5.13;2.00;;;23.70;99.90;;;;;;5056139;28;20189;-75
2023/03/17 11:35:04;;;;;;;5.25;2.30;;;23.70;99.90;;;;;;5055916;28;20238;-77
2023/03/17 11:38:01;;;;;;;6.47;2.03;;;23.70;99.90;;;;;;5056113;28;20783;-79
2023/03/17 11:40:36;;;;;;;9.93;2.75;;;23.60;99.90;;;;;;5056136;28;20194;-76
2023/03/17 11:43:24;;;;;;;3.95;1.80;;;23.70;99.90;;;;;;5056104;28;20193;-76
2023/03/17 11:46:00;;;;;;;7.03;2.40;;;23.70;99.90;;;;;;5055194;28;20197;-78
2023/03/17 11:48:40;;;;;;;10.48;2.58;;;23.60;99.90;;;;;;5056094;28;20284;-77
2023/03/17 11:51:21;;;;;;;5.05;2.15;;;23.60;99.90;;;;;;5055837;28;20193;-76
2023/03/17 11:54:05;;;;;;;6.85;2.33;;;23.60;99.90;;;;;;5055783;28;20260;-76
2023/03/17 11:56:42;;;;;;;5.40;2.30;;;23.60;99.90;;;;;;5055757;28;20569;-76
2023/03/17 11:59:26;;;;;;;6.25;2.20;;;23.60;99.90;;;;;;5055792;28;20340;-77
2023/03/17 12:02:05;;;;;;;6.50;2.33;;;23.60;99.90;;;;;;5055883;28;20208;-76
2023/03/17 12:04:39;;;;;;;5.85;2.03;;;23.60;99.90;;;;;;5055679;28;20240;-76
2023/03/17 12:07:20;;;;;;;8.40;2.25;;;23.60;99.90;;;;;;5055903;28;20200;-75
2023/03/17 12:10:00;;;;;;;8.60;2.45;;;23.60;99.90;;;;;;5055601;28;20597;-76
2023/03/17 12:12:35;;;;;;;5.63;2.15;;;23.60;99.90;;;;;;5055445;28;20217;-76
2023/03/17 12:15:13;;;;;;;8.40;2.40;;;23.60;99.90;;;;;;5055484;28;20220;-76
2023/03/17 12:17:52;;;;;;;5.05;2.20;;;23.60;99.90;;;;;;5055385;28;20229;-76
2023/03/17 12:20:27;;;;;;;6.18;2.30;;;23.60;99.90;;;;;;5055412;28;20189;-81
2023/03/17 12:23:06;;;;;;;7.18;2.30;;;23.60;99.90;;;;;;5055417;28;20537;-78
2023/03/17 12:25:43;;;;;;;7.80;2.38;;;23.50;99.90;;;;;;5055286;28;20197;-77
2023/03/17 12:28:19;;;;;;;7.70;2.20;;;23.50;99.90;;;;;;5055340;28;20185;-77
2023/03/17 12:30:54;;;;;;;8.18;2.53;;;23.50;99.90;;;;;;5054949;28;20189;-78
2023/03/17 12:33:32;;;;;;;10.10;2.30;;;23.50;99.90;;;;;;5055210;28;20240;-77
2023/03/17 12:36:05;;;;;;;11.50;2.45;;;23.50;99.90;;;;;;5055085;28;20197;-77
2023/03/17 12:38:42;;;;;;;8.45;3.05;;;23.50;99.90;;;;;;5054921;28;20685;-77
2023/03/17 12:41:29;;;;;;;7.18;2.30;;;23.50;99.90;;;;;;5055080;28;20189;-78
2023/03/17 12:44:08;;;;;;;5.82;2.20;;;23.40;99.90;;;;;;5055340;28;20193;-77
2023/03/17 12:47:11;;;;;;;11.35;2.70;;;23.40;99.90;;;;;;5054670;28;20710;-77
2023/03/17 12:50:06;;;;;;;4.78;2.03;;;23.40;99.90;;;;;;5054835;28;20587;-77
2023/03/17 12:52:52;;;;;;;7.38;1.85;;;23.40;99.90;;;;;;5042492;28;20264;-77
2023/03/17 12:55:28;;;;;;;9.07;2.50;;;23.40;99.90;;;;;;5054390;28;20192;-77
2023/03/17 12:58:06;;;;;;;5.55;2.25;;;23.40;99.90;;;;;;5054670;28;20190;-78
2023/03/17 13:00:51;;;;;;;7.13;2.10;;;23.30;99.90;;;;;;5054377;28;20225;-77
2023/03/17 13:03:31;;;;;;;6.05;2.25;;;23.40;99.90;;;;;;5054939;28;20208;-78
2023/03/17 13:06:04;;;;;;;8.25;2.60;;;23.30;99.90;;;;;;5054547;28;20238;-77
2023/03/17 13:08:37;;;;;;;8.13;2.30;;;23.30;99.90;;;;;;5053230;28;20189;-78
2023/03/17 13:11:30;;;;;;;6.72;2.50;;;23.30;99.90;;;;;;5054510;28;20201;-78
2023/03/17 13:14:17;;;;;;;8.75;2.63;;;23.30;99.90;;;;;;5054531;28;20595;-77
2023/03/17 13:16:50;;;;;;;5.93;2.20;;;23.30;99.90;;;;;;5054367;28;20185;-77
2023/03/17 13:19:26;;;;;;;5.40;2.33;;;23.30;99.90;;;;;;5054276;28;20201;-77
2023/03/17 13:22:35;;;;;;;5.15;2.20;;;23.30;99.90;;;;;;5054123;28;20243;-78